Time;durP1;ratioP1;P1;durP2;ratioP2;P2;SDS_P1;SDS_P2;PMS_P1;PMS_P2;Temp;Humidity;BMP_temperature;BMP_pressure;BME280_temperature;BME280_humidity;BME280_pressure;Samples;Min_cycle;Max_cycle;Signal;HPM_P1;HPM_P2
2023/08/02 00:00:35;;;;;;;1.73;1.50;;;;;;;;;;5011995;28;20068;-76
2023/08/02 00:03:01;;;;;;;1.40;1.30;;;;;;;;;;5026852;28;20478;-76
2023/08/02 00:05:27;;;;;;;1.88;1.40;;;;;;;;;;5033016;28;20035;-76
2023/08/02 00:07:52;;;;;;;2.75;1.60;;;;;;;;;;5027318;28;20078;-76
2023/08/02 00:10:17;;;;;;;1.60;1.38;;;;;;;;;;5035064;28;20028;-75
2023/08/02 00:12:43;;;;;;;2.15;1.50;;;;;;;;;;5030764;28;20020;-75
2023/08/02 00:15:08;;;;;;;3.33;1.30;;;;;;;;;;5034958;28;20025;-76
2023/08/02 00:17:34;;;;;;;1.80;1.20;;;;;;;;;;5014094;28;20839;-75
2023/08/02 00:19:59;;;;;;;1.20;1.10;;;;;;;;;;5025534;28;20104;-75
2023/08/02 00:22:25;;;;;;;4.50;1.60;;;;;;;;;;5013207;28;20474;-76
2023/08/02 00:24:50;;;;;;;3.47;1.38;;;;;;;;;;5039613;28;20025;-76
2023/08/02 00:27:15;;;;;;;1.95;1.23;;;;;;;;;;5027385;28;20029;-76
2023/08/02 00:29:41;;;;;;;3.55;1.40;;;;;;;;;;5027282;28;20397;-75
2023/08/02 00:32:06;;;;;;;2.92;1.30;;;;;;;;;;5032618;28;20100;-75
2023/08/02 00:34:32;;;;;;;1.67;1.35;;;;;;;;;;5034652;28;20082;-76
2023/08/02 00:36:57;;;;;;;1.40;1.10;;;;;;;;;;5034428;28;20034;-75
2023/08/02 00:39:23;;;;;;;3.65;1.50;;;;;;;;;;5030717;28;20033;-75
2023/08/02 00:41:48;;;;;;;2.22;1.38;;;;;;;;;;5036167;28;20544;-75
2023/08/02 00:44:13;;;;;;;2.65;1.38;;;;;;;;;;5027758;28;20067;-75
2023/08/02 00:46:39;;;;;;;4.25;1.40;;;;;;;;;;5030208;28;20021;-76
2023/08/02 00:49:04;;;;;;;2.50;1.25;;;;;;;;;;5036323;28;20025;-75
2023/08/02 00:51:33;;;;;;;1.42;1.10;;;;;;;;;;5042295;28;20083;-75
2023/08/02 00:54:02;;;;;;;2.70;1.80;;;;;;;;;;5030426;28;20017;-75
2023/08/02 00:56:31;;;;;;;2.40;1.27;;;;;;;;;;5035276;28;20034;-75
2023/08/02 00:58:56;;;;;;;3.90;1.30;;;;;;;;;;5038113;28;20038;-76
2023/08/02 01:01:21;;;;;;;1.20;0.95;;;;;;;;;;5040283;28;20032;-75
2023/08/02 01:03:47;;;;;;;4.03;1.50;;;;;;;;;;5019769;28;20021;-75
2023/08/02 01:06:27;;;;;;;6.28;1.33;;;;;;;;;;5042460;28;20131;-75
2023/08/02 01:09:00;;;;;;;12.30;1.65;;;;;;;;;;5037425;28;20013;-75
2023/08/02 01:11:46;;;;;;;2.85;1.45;;;;;;;;;;5036254;28;20029;-75
2023/08/02 01:14:16;;;;;;;2.50;1.30;;;;;;;;;;5017170;28;20031;-75
2023/08/02 01:16:43;;;;;;;1.00;0.77;;;;;;;;;;5030140;28;20049;-75
2023/08/02 01:19:09;;;;;;;2.58;1.13;;;;;;;;;;5037653;28;20063;-75
2023/08/02 01:21:35;;;;;;;1.08;0.90;;;;;;;;;;5019098;28;20057;-75
2023/08/02 01:24:00;;;;;;;2.22;1.48;;;;;;;;;;5034938;28;20030;-75
2023/08/02 01:26:29;;;;;;;3.00;1.30;;;;;;;;;;5032494;28;20022;-75
2023/08/02 01:28:55;;;;;;;2.30;1.40;;;;;;;;;;5026915;28;20164;-74
2023/08/02 01:31:21;;;;;;;1.90;1.10;;;;;;;;;;5032289;28;20497;-75
2023/08/02 01:33:50;;;;;;;2.00;1.23;;;;;;;;;;5031549;28;20060;-75
2023/08/02 01:36:16;;;;;;;1.52;0.93;;;;;;;;;;5039698;28;20578;-75
2023/08/02 01:38:42;;;;;;;3.63;0.95;;;;;;;;;;5033425;28;20025;-75
2023/08/02 01:41:07;;;;;;;1.77;1.08;;;;;;;;;;5030292;28;20031;-75
2023/08/02 01:43:32;;;;;;;3.35;1.20;;;;;;;;;;5031202;28;20108;-75
2023/08/02 01:45:58;;;;;;;1.48;1.10;;;;;;;;;;5031307;28;20044;-75
2023/08/02 01:48:25;;;;;;;1.67;1.25;;;;;;;;;;5028003;28;20483;-75
2023/08/02 01:50:51;;;;;;;3.08;1.45;;;;;;;;;;5031198;28;20025;-74
2023/08/02 01:53:16;;;;;;;1.52;0.93;;;;;;;;;;5031247;28;20111;-75
2023/08/02 01:55:42;;;;;;;1.30;1.00;;;;;;;;;;5023255;28;20050;-75
2023/08/02 01:58:08;;;;;;;3.13;1.20;;;;;;;;;;5013542;28;20034;-75
2023/08/02 02:00:33;;;;;;;1.75;1.05;;;;;;;;;;5036287;28;20029;-75
2023/08/02 02:02:58;;;;;;;2.22;1.52;;;;;;;;;;5031262;28;20534;-75
2023/08/02 02:05:24;;;;;;;0.90;0.90;;;;;;;;;;5034766;28;20045;-75
2023/08/02 02:07:49;;;;;;;2.13;1.00;;;;;;;;;;5029061;28;20095;-75
2023/08/02 02:10:15;;;;;;;3.30;1.20;;;;;;;;;;5027729;28;20021;-75
2023/08/02 02:12:40;;;;;;;1.27;1.02;;;;;;;;;;5012737;28;20489;-75
2023/08/02 02:15:06;;;;;;;2.78;1.30;;;;;;;;;;5016802;28;20030;-74
2023/08/02 02:17:31;;;;;;;2.88;1.30;;;;;;;;;;5037034;28;20678;-75
2023/08/02 02:19:57;;;;;;;3.97;1.35;;;;;;;;;;5027799;28;20025;-75
2023/08/02 02:22:22;;;;;;;3.50;1.50;;;;;;;;;;5032206;28;20022;-75
2023/08/02 02:24:47;;;;;;;2.15;1.15;;;;;;;;;;5026037;28;20028;-75
2023/08/02 02:27:13;;;;;;;2.97;1.10;;;;;;;;;;5033618;28;20503;-75
2023/08/02 02:29:38;;;;;;;1.58;1.30;;;;;;;;;;5016397;28;20028;-75
2023/08/02 02:32:04;;;;;;;1.38;1.17;;;;;;;;;;5029249;28;20109;-76
2023/08/02 02:34:29;;;;;;;1.88;1.08;;;;;;;;;;5028904;28;20334;-76
2023/08/02 02:36:54;;;;;;;1.77;0.95;;;;;;;;;;5037194;28;20167;-75
2023/08/02 02:39:20;;;;;;;4.05;1.17;;;;;;;;;;5031636;28;20022;-76
2023/08/02 02:41:45;;;;;;;2.90;1.23;;;;;;;;;;5026987;28;20021;-76
2023/08/02 02:44:10;;;;;;;2.33;1.20;;;;;;;;;;5026248;28;20022;-75
2023/08/02 02:46:36;;;;;;;4.07;1.20;;;;;;;;;;5027068;28;20545;-76
2023/08/02 02:49:01;;;;;;;2.13;1.00;;;;;;;;;;5028799;28;20087;-76
2023/08/02 02:51:26;;;;;;;14.65;2.67;;;;;;;;;;5038713;28;20009;-76
2023/08/02 02:53:52;;;;;;;2.67;1.10;;;;;;;;;;5034842;28;20389;-76
2023/08/02 02:56:17;;;;;;;1.92;0.98;;;;;;;;;;5009505;28;20039;-76
2023/08/02 02:58:43;;;;;;;4.13;1.20;;;;;;;;;;5021531;28;20071;-76
2023/08/02 03:01:08;;;;;;;3.22;1.20;;;;;;;;;;5016323;28;20027;-75
2023/08/02 03:03:34;;;;;;;1.92;1.08;;;;;;;;;;5029232;28;20028;-76
2023/08/02 03:06:00;;;;;;;2.10;1.13;;;;;;;;;;5032751;28;20029;-74
2023/08/02 03:08:25;;;;;;;1.17;0.90;;;;;;;;;;5033677;28;20680;-75
2023/08/02 03:10:50;;;;;;;1.58;1.02;;;;;;;;;;5029051;28;20017;-75
2023/08/02 03:13:16;;;;;;;1.08;0.95;;;;;;;;;;5030330;28;20107;-76
2023/08/02 03:15:41;;;;;;;2.35;1.20;;;;;;;;;;5012731;28;20025;-76
2023/08/02 03:18:06;;;;;;;5.10;1.10;;;;;;;;;;5034490;28;20025;-75
2023/08/02 03:20:32;;;;;;;1.30;0.95;;;;;;;;;;5033319;28;20480;-76
2023/08/02 03:22:57;;;;;;;2.30;1.10;;;;;;;;;;5024352;28;20029;-76
2023/08/02 03:25:22;;;;;;;1.77;0.93;;;;;;;;;;5023549;28;20026;-76
2023/08/02 03:27:48;;;;;;;2.88;1.00;;;;;;;;;;5013648;28;20047;-75
2023/08/02 03:30:13;;;;;;;1.42;0.80;;;;;;;;;;5024091;28;20487;-75
2023/08/02 03:32:38;;;;;;;2.50;1.02;;;;;;;;;;5033659;28;20382;-76
2023/08/02 03:35:04;;;;;;;1.33;0.95;;;;;;;;;;5030656;28;20024;-76
2023/08/02 03:37:29;;;;;;;3.10;0.98;;;;;;;;;;5031961;28;20508;-76
2023/08/02 03:39:55;;;;;;;1.30;1.02;;;;;;;;;;5029250;28;20113;-76
2023/08/02 03:42:20;;;;;;;1.85;1.05;;;;;;;;;;5022379;28;20041;-75
2023/08/02 03:44:45;;;;;;;1.02;0.90;;;;;;;;;;5029803;28;20063;-76
2023/08/02 03:47:11;;;;;;;1.73;1.17;;;;;;;;;;5025035;28;20113;-75
2023/08/02 03:49:37;;;;;;;2.28;1.23;;;;;;;;;;5012861;28;20045;-75
2023/08/02 03:52:02;;;;;;;3.22;1.55;;;;;;;;;;5033005;28;20029;-75
2023/08/02 03:54:28;;;;;;;8.25;1.88;;;;;;;;;;5022957;28;20430;-75
2023/08/02 03:56:53;;;;;;;2.45;1.45;;;;;;;;;;5027209;28;20097;-76
2023/08/02 03:59:19;;;;;;;4.10;1.60;;;;;;;;;;5028533;28;20056;-75
2023/08/02 04:01:44;;;;;;;4.57;1.67;;;;;;;;;;5009703;28;20053;-75
2023/08/02 04:04:09;;;;;;;2.28;1.52;;;;;;;;;;5024922;28;20482;-75
2023/08/02 04:06:35;;;;;;;3.05;1.10;;;;;;;;;;5025438;28;20020;-75
2023/08/02 04:09:00;;;;;;;1.67;1.10;;;;;;;;;;5030560;28;20541;-75
2023/08/02 04:11:26;;;;;;;2.10;1.40;;;;;;;;;;5032400;28;20053;-76
2023/08/02 04:13:51;;;;;;;2.55;1.10;;;;;;;;;;5024853;28;20037;-76
2023/08/02 04:16:16;;;;;;;4.20;1.15;;;;;;;;;;5027419;28;20027;-76
2023/08/02 04:18:42;;;;;;;2.55;1.10;;;;;;;;;;5024712;28;20535;-75
2023/08/02 04:21:08;;;;;;;1.67;0.90;;;;;;;;;;5030361;28;20025;-76
2023/08/02 04:23:33;;;;;;;3.85;1.20;;;;;;;;;;5029445;28;20021;-76
2023/08/02 04:25:58;;;;;;;1.60;0.75;;;;;;;;;;5031305;28;20026;-75
2023/08/02 04:28:24;;;;;;;1.55;1.02;;;;;;;;;;5030122;28;20903;-76
2023/08/02 04:30:50;;;;;;;1.55;0.95;;;;;;;;;;5032758;28;20048;-76
2023/08/02 04:33:15;;;;;;;1.85;1.13;;;;;;;;;;5029980;28;20024;-75
2023/08/02 04:35:41;;;;;;;1.70;0.93;;;;;;;;;;5032052;28;20017;-76
2023/08/02 04:38:06;;;;;;;2.58;1.00;;;;;;;;;;5031980;28;20040;-76
2023/08/02 04:40:31;;;;;;;1.33;0.77;;;;;;;;;;5034421;28;20048;-75
2023/08/02 04:42:57;;;;;;;2.58;1.10;;;;;;;;;;5041407;28;20043;-76
2023/08/02 04:45:22;;;;;;;1.95;0.93;;;;;;;;;;5040714;28;20104;-75
2023/08/02 04:47:48;;;;;;;1.15;0.80;;;;;;;;;;5030215;28;20017;-76
2023/08/02 04:50:13;;;;;;;2.65;1.25;;;;;;;;;;5043059;28;20075;-77
2023/08/02 04:52:38;;;;;;;3.05;1.27;;;;;;;;;;5031723;28;20033;-76
2023/08/02 04:55:05;;;;;;;3.00;1.08;;;;;;;;;;5038270;28;20021;-77
2023/08/02 04:57:31;;;;;;;1.73;0.75;;;;;;;;;;5036396;28;20120;-76
2023/08/02 04:59:56;;;;;;;1.65;1.00;;;;;;;;;;5037936;28;20053;-76
2023/08/02 05:02:25;;;;;;;2.35;1.00;;;;;;;;;;5015694;28;20033;-76
2023/08/02 05:04:55;;;;;;;1.60;1.00;;;;;;;;;;5020986;28;20028;-77
2023/08/02 05:07:20;;;;;;;2.08;1.00;;;;;;;;;;5026849;28;20084;-76
2023/08/02 05:09:45;;;;;;;1.00;0.90;;;;;;;;;;5027663;28;20029;-76
2023/08/02 05:12:11;;;;;;;2.90;1.00;;;;;;;;;;5033729;28;20028;-77
2023/08/02 05:14:36;;;;;;;1.05;0.90;;;;;;;;;;5028185;28;20024;-77
2023/08/02 05:17:01;;;;;;;1.27;1.05;;;;;;;;;;5040253;28;20024;-76
2023/08/02 05:19:27;;;;;;;2.10;0.90;;;;;;;;;;5034725;28;20029;-75
2023/08/02 05:21:52;;;;;;;3.28;1.10;;;;;;;;;;5027679;28;20082;-76
2023/08/02 05:24:18;;;;;;;1.00;1.00;;;;;;;;;;5025329;28;20112;-76
2023/08/02 05:26:43;;;;;;;2.08;1.05;;;;;;;;;;5006574;28;20029;-76
2023/08/02 05:29:08;;;;;;;1.25;1.10;;;;;;;;;;5034747;28;20029;-76
2023/08/02 05:31:34;;;;;;;1.23;1.13;;;;;;;;;;5029549;28;20034;-76
2023/08/02 05:33:59;;;;;;;1.63;1.23;;;;;;;;;;5033468;28;20948;-75
2023/08/02 05:36:24;;;;;;;4.25;2.00;;;;;;;;;;5033691;28;20045;-76
2023/08/02 05:38:50;;;;;;;2.88;1.20;;;;;;;;;;5029974;28;20104;-76
2023/08/02 05:41:15;;;;;;;2.95;1.15;;;;;;;;;;5024317;28;20069;-75
2023/08/02 05:43:44;;;;;;;1.83;1.30;;;;;;;;;;5025832;28;20044;-75
2023/08/02 05:46:09;;;;;;;2.97;1.27;;;;;;;;;;5029025;28;20033;-74
2023/08/02 05:48:35;;;;;;;4.13;1.23;;;;;;;;;;5041157;28;20493;-76
2023/08/02 05:51:00;;;;;;;1.67;1.00;;;;;;;;;;5033359;28;20083;-75
2023/08/02 05:53:25;;;;;;;2.10;1.15;;;;;;;;;;5021701;28;20029;-75
2023/08/02 05:55:51;;;;;;;1.73;1.13;;;;;;;;;;5029972;28;20021;-76
2023/08/02 05:58:17;;;;;;;1.52;0.98;;;;;;;;;;5038198;28;20121;-76
2023/08/02 06:00:42;;;;;;;1.20;1.00;;;;;;;;;;5033902;28;20076;-76
2023/08/02 06:03:07;;;;;;;2.63;1.20;;;;;;;;;;5035351;28;20435;-77
2023/08/02 06:05:33;;;;;;;1.75;1.02;;;;;;;;;;5032203;28;20022;-75
2023/08/02 06:07:58;;;;;;;3.55;1.20;;;;;;;;;;5031670;28;20017;-76
2023/08/02 06:10:23;;;;;;;1.40;0.82;;;;;;;;;;5035102;28;20019;-76
2023/08/02 06:12:49;;;;;;;2.72;1.15;;;;;;;;;;5034742;28;20017;-76
2023/08/02 06:15:14;;;;;;;1.65;0.95;;;;;;;;;;5022951;28;20021;-76
2023/08/02 06:17:40;;;;;;;2.00;1.10;;;;;;;;;;5028217;28;20025;-76
2023/08/02 06:20:07;;;;;;;1.85;1.00;;;;;;;;;;5032059;28;20032;-76
2023/08/02 06:22:32;;;;;;;1.77;1.33;;;;;;;;;;5015334;28;20048;-75
2023/08/02 06:24:57;;;;;;;2.75;1.40;;;;;;;;;;5011288;28;20041;-76
2023/08/02 06:27:24;;;;;;;1.20;1.10;;;;;;;;;;5019223;28;20057;-74
2023/08/02 06:29:50;;;;;;;4.13;1.20;;;;;;;;;;4996551;28;20037;-76
2023/08/02 06:32:15;;;;;;;1.65;1.40;;;;;;;;;;4999139;28;20034;-76
2023/08/02 06:34:40;;;;;;;4.07;1.65;;;;;;;;;;5011317;28;20456;-75
2023/08/02 06:37:06;;;;;;;3.13;1.73;;;;;;;;;;5014669;28;20033;-75
2023/08/02 06:39:32;;;;;;;1.75;1.20;;;;;;;;;;4990623;28;20516;-74
2023/08/02 06:41:58;;;;;;;4.32;1.80;;;;;;;;;;5013054;28;20552;-74
2023/08/02 06:44:23;;;;;;;1.88;1.00;;;;;;;;;;5027257;28;20037;-75
2023/08/02 06:46:49;;;;;;;0.90;0.85;;;;;;;;;;5028022;28;20041;-75
2023/08/02 06:49:14;;;;;;;1.75;1.60;;;;;;;;;;5027054;28;20128;-75
2023/08/02 06:51:40;;;;;;;2.40;1.60;;;;;;;;;;5014525;28;20045;-76
2023/08/02 06:54:05;;;;;;;1.75;1.23;;;;;;;;;;4992885;28;20084;-75
2023/08/02 06:56:30;;;;;;;2.28;1.30;;;;;;;;;;5013828;28;20063;-75
2023/08/02 06:58:56;;;;;;;3.55;2.13;;;;;;;;;;5026148;28;20045;-75
2023/08/02 07:01:23;;;;;;;4.85;1.90;;;;;;;;;;5029332;28;20203;-75
2023/08/02 07:03:49;;;;;;;2.38;1.52;;;;;;;;;;5014014;28;20052;-76
2023/08/02 07:06:17;;;;;;;2.05;1.67;;;;;;;;;;5022561;28;20125;-76
2023/08/02 07:08:43;;;;;;;4.40;2.00;;;;;;;;;;5015504;28;20083;-75
2023/08/02 07:11:09;;;;;;;1.27;1.02;;;;;;;;;;5024181;28;20034;-76
2023/08/02 07:13:38;;;;;;;2.58;1.40;;;;;;;;;;5026351;28;20043;-75
2023/08/02 07:16:04;;;;;;;3.65;2.05;;;;;;;;;;4999705;28;20100;-76
2023/08/02 07:18:30;;;;;;;2.92;1.45;;;;;;;;;;5021962;28;20408;-76
2023/08/02 07:20:56;;;;;;;2.17;1.67;;;;;;;;;;5015208;28;20038;-77
2023/08/02 07:23:22;;;;;;;3.78;1.80;;;;;;;;;;5031796;28;20827;-76
2023/08/02 07:25:48;;;;;;;2.67;1.83;;;;;;;;;;5010301;28;20639;-76
2023/08/02 07:28:13;;;;;;;4.07;2.35;;;;;;;;;;4997178;28;20079;-77
2023/08/02 07:30:39;;;;;;;5.03;2.35;;;;;;;;;;4983480;28;20383;-77
2023/08/02 07:33:04;;;;;;;3.08;1.92;;;;;;;;;;4989704;28;20048;-76
2023/08/02 07:35:29;;;;;;;3.28;1.83;;;;;;;;;;4989263;28;20034;-76
2023/08/02 07:37:55;;;;;;;3.90;1.90;;;;;;;;;;4986919;28;20042;-76
2023/08/02 07:40:20;;;;;;;6.75;2.05;;;;;;;;;;4983925;28;20042;-77
2023/08/02 07:42:46;;;;;;;1.98;1.67;;;;;;;;;;4996644;28;20046;-77
2023/08/02 07:45:12;;;;;;;3.85;2.38;;;;;;;;;;5014702;28;20398;-77
2023/08/02 07:47:38;;;;;;;2.03;1.60;;;;;;;;;;5005489;28;20069;-76
2023/08/02 07:50:05;;;;;;;3.13;1.80;;;;;;;;;;5000743;28;20064;-76
2023/08/02 07:52:30;;;;;;;3.13;2.00;;;;;;;;;;5005877;28;20030;-77
2023/08/02 07:54:56;;;;;;;3.20;1.65;;;;;;;;;;5016732;28;20034;-76
2023/08/02 07:57:29;;;;;;;3.85;1.80;;;;;;;;;;4966856;28;20068;-77
2023/08/02 07:59:56;;;;;;;4.13;2.00;;;;;;;;;;5000822;28;20038;-77
2023/08/02 08:02:22;;;;;;;3.78;1.35;;;;;;;;;;4999277;28;20052;-77
2023/08/02 08:04:47;;;;;;;2.90;1.65;;;;;;;;;;5008635;28;20666;-77
2023/08/02 08:07:13;;;;;;;5.50;1.55;;;;;;;;;;5006789;28;20033;-76
2023/08/02 08:09:38;;;;;;;4.70;2.35;;;;;;;;;;4996485;28;20108;-75
2023/08/02 08:12:07;;;;;;;2.63;1.83;;;;;;;;;;4973142;28;20026;-77
2023/08/02 08:14:33;;;;;;;1.65;1.30;;;;;;;;;;5005944;28;20120;-77
2023/08/02 08:17:00;;;;;;;2.50;2.00;;;;;;;;;;4987407;28;20046;-77
2023/08/02 08:19:26;;;;;;;4.07;1.77;;;;;;;;;;4994186;28;20077;-77
2023/08/02 08:21:52;;;;;;;3.20;1.58;;;;;;;;;;4978644;28;20049;-77
2023/08/02 08:24:17;;;;;;;3.72;1.90;;;;;;;;;;4986613;28;20053;-77
2023/08/02 08:26:43;;;;;;;2.22;1.60;;;;;;;;;;4973233;28;20050;-76
2023/08/02 08:29:08;;;;;;;1.95;1.60;;;;;;;;;;4982666;28;20163;-77
2023/08/02 08:31:33;;;;;;;3.15;2.05;;;;;;;;;;4983293;28;20030;-77
2023/08/02 08:33:59;;;;;;;3.83;1.98;;;;;;;;;;5002983;28;20049;-76
2023/08/02 08:36:26;;;;;;;4.38;2.33;;;;;;;;;;4994969;28;20057;-77
2023/08/02 08:38:52;;;;;;;2.00;1.63;;;;;;;;;;4988082;28;20034;-77
2023/08/02 08:41:17;;;;;;;2.78;1.65;;;;;;;;;;4974294;28;20117;-77
2023/08/02 08:43:43;;;;;;;2.90;2.03;;;;;;;;;;4982804;28;20116;-77
2023/08/02 08:46:11;;;;;;;4.20;1.80;;;;;;;;;;4993606;28;20054;-77
2023/08/02 08:48:38;;;;;;;2.95;2.20;;;;;;;;;;4995735;28;20061;-76
2023/08/02 08:51:04;;;;;;;2.08;1.80;;;;;;;;;;4981716;28;20618;-77
2023/08/02 08:53:34;;;;;;;3.65;2.13;;;;;;;;;;5007541;28;20049;-77
2023/08/02 08:56:01;;;;;;;2.63;1.58;;;;;;;;;;4991395;28;20162;-76
2023/08/02 08:58:27;;;;;;;3.25;1.73;;;;;;;;;;4997709;28;20033;-77
2023/08/02 09:00:56;;;;;;;3.00;1.70;;;;;;;;;;4998577;28;20042;-77
2023/08/02 09:03:23;;;;;;;2.00;1.70;;;;;;;;;;5000504;28;20041;-77
2023/08/02 09:05:49;;;;;;;3.63;2.20;;;;;;;;;;4992184;28;20041;-77
2023/08/02 09:08:15;;;;;;;4.70;2.15;;;;;;;;;;4991403;28;20122;-76
2023/08/02 09:10:41;;;;;;;2.58;1.58;;;;;;;;;;4993703;28;20061;-77
2023/08/02 09:13:19;;;;;;;3.53;1.90;;;;;;;;;;4965098;28;20104;-75
2023/08/02 09:15:44;;;;;;;2.72;2.00;;;;;;;;;;4993727;28;20100;-76
2023/08/02 09:18:09;;;;;;;4.30;2.10;;;;;;;;;;5001423;28;20045;-77
2023/08/02 09:20:35;;;;;;;3.28;2.00;;;;;;;;;;5000499;28;20082;-76
2023/08/02 09:23:14;;;;;;;2.70;2.35;;;;;;;;;;4998313;28;20048;-76
2023/08/02 09:25:39;;;;;;;2.80;1.83;;;;;;;;;;4971999;28;20261;-77
2023/08/02 09:28:11;;;;;;;3.60;2.30;;;;;;;;;;5000749;28;20049;-77
2023/08/02 09:30:36;;;;;;;3.17;1.77;;;;;;;;;;5006029;28;20846;-77
2023/08/02 09:33:08;;;;;;;3.15;2.10;;;;;;;;;;4985909;28;20076;-77
2023/08/02 09:35:46;;;;;;;2.95;1.92;;;;;;;;;;4992263;28;20038;-77
2023/08/02 09:38:12;;;;;;;2.90;1.88;;;;;;;;;;4977547;28;20055;-76
2023/08/02 09:40:38;;;;;;;4.28;2.08;;;;;;;;;;4994118;28;20056;-77
2023/08/02 09:43:08;;;;;;;1.70;1.60;;;;;;;;;;5001183;28;20065;-77
2023/08/02 09:45:35;;;;;;;4.10;2.00;;;;;;;;;;4959381;28;20034;-77
2023/08/02 09:48:01;;;;;;;3.75;2.17;;;;;;;;;;5000571;28;20046;-77
2023/08/02 09:50:27;;;;;;;3.00;1.88;;;;;;;;;;5003231;28;20057;-76
2023/08/02 09:52:53;;;;;;;3.70;1.88;;;;;;;;;;4978527;28;20372;-77
2023/08/02 09:55:18;;;;;;;3.17;2.10;;;;;;;;;;4998601;28;20037;-77
2023/08/02 09:57:46;;;;;;;2.10;1.80;;;;;;;;;;4982907;28;20061;-76
2023/08/02 10:00:12;;;;;;;2.03;1.60;;;;;;;;;;4978321;28;21311;-77
2023/08/02 10:02:38;;;;;;;1.95;1.50;;;;;;;;;;4979008;28;20076;-77
2023/08/02 10:05:06;;;;;;;3.65;1.80;;;;;;;;;;4976422;28;20747;-78
2023/08/02 10:07:48;;;;;;;2.95;1.90;;;;;;;;;;5003315;28;20151;-77
2023/08/02 10:10:37;;;;;;;3.60;1.90;;;;;;;;;;5002009;28;20091;-76
2023/08/02 10:13:08;;;;;;;1.70;1.35;;;;;;;;;;5009509;28;20087;-77
2023/08/02 10:15:36;;;;;;;3.20;1.60;;;;;;;;;;4976762;28;20054;-77
2023/08/02 10:18:04;;;;;;;2.25;1.60;;;;;;;;;;4974981;28;20182;-76
2023/08/02 10:20:30;;;;;;;1.67;1.40;;;;;;;;;;4983876;28;20045;-75
2023/08/02 10:22:56;;;;;;;3.25;1.60;;;;;;;;;;4992414;28;20834;-77
2023/08/02 10:25:23;;;;;;;2.90;1.90;;;;;;;;;;4990344;28;20052;-77
2023/08/02 10:27:49;;;;;;;3.78;2.03;;;;;;;;;;4988184;28;20029;-75
2023/08/02 10:30:14;;;;;;;2.50;1.38;;;;;;;;;;4991561;28;20041;-76
2023/08/02 10:32:40;;;;;;;2.40;1.67;;;;;;;;;;4995633;28;21223;-76
2023/08/02 10:35:06;;;;;;;2.63;2.10;;;;;;;;;;4998290;28;20044;-76
2023/08/02 10:37:52;;;;;;;2.10;1.77;;;;;;;;;;4984268;28;20037;-77
2023/08/02 10:40:21;;;;;;;3.65;1.80;;;;;;;;;;4983312;28;20133;-76
2023/08/02 10:43:15;;;;;;;2.90;1.95;;;;;;;;;;4999923;22;20571;-79
2023/08/02 10:45:41;;;;;;;2.28;1.48;;;;;;;;;;5012380;28;20528;-79
2023/08/02 10:48:27;;;;;;;1.38;1.20;;;;;;;;;;5030214;28;20071;-80
2023/08/02 10:50:52;;;;;;;2.22;1.33;;;;;;;;;;5013584;28;20041;-82
2023/08/02 10:53:18;;;;;;;1.83;1.58;;;;;;;;;;5004166;28;20047;-82
2023/08/02 10:56:03;;;;;;;2.25;1.63;;;;;;;;;;4992086;28;20037;-82
2023/08/02 10:58:49;;;;;;;1.75;1.52;;;;;;;;;;4989588;28;20040;-82
2023/08/02 11:01:14;;;;;;;2.30;1.70;;;;;;;;;;4983225;28;20046;-80
2023/08/02 11:03:40;;;;;;;2.42;1.60;;;;;;;;;;4990605;28;20045;-80
2023/08/02 11:06:06;;;;;;;2.00;1.30;;;;;;;;;;5007877;28;20041;-82
2023/08/02 11:08:46;;;;;;;1.23;1.13;;;;;;;;;;5007652;28;20049;-82
2023/08/02 11:11:12;;;;;;;2.85;1.50;;;;;;;;;;4992804;28;20049;-82
2023/08/02 11:13:39;;;;;;;2.53;1.70;;;;;;;;;;4991406;28;20678;-80
2023/08/02 11:16:06;;;;;;;1.83;1.48;;;;;;;;;;4998331;28;20046;-80
2023/08/02 11:18:32;;;;;;;2.28;1.55;;;;;;;;;;5005031;28;20044;-80
2023/08/02 11:21:11;;;;;;;1.45;1.05;;;;;;;;;;4991805;28;20052;-81
2023/08/02 11:23:37;;;;;;;2.55;1.20;;;;;;;;;;5005022;28;20029;-80
2023/08/02 11:26:07;;;;;;;1.30;0.90;;;;;;;;;;5009131;28;20128;-80
2023/08/02 11:28:43;;;;;;;1.42;1.00;;;;;;;;;;4984652;28;20114;-83
2023/08/02 11:31:10;;;;;;;1.75;0.90;;;;;;;;;;4990081;28;20783;-82
2023/08/02 11:33:37;;;;;;;1.83;1.20;;;;;;;;;;4988960;28;20119;-83
2023/08/02 11:36:04;;;;;;;1.70;1.10;;;;;;;;;;5012398;28;20524;-83
2023/08/02 11:38:30;;;;;;;2.67;1.10;;;;;;;;;;5014392;28;20040;-83
2023/08/02 11:40:55;;;;;;;1.10;0.82;;;;;;;;;;5003036;28;20046;-83
2023/08/02 11:43:34;;;;;;;1.00;0.82;;;;;;;;;;4995505;28;20045;-84
2023/08/02 11:45:59;;;;;;;1.10;1.00;;;;;;;;;;4996775;28;20082;-85
2023/08/02 11:48:25;;;;;;;0.90;0.90;;;;;;;;;;5011342;28;20416;-84
2023/08/02 11:50:52;;;;;;;0.80;0.80;;;;;;;;;;4995325;28;20033;-84
2023/08/02 11:53:17;;;;;;;0.75;0.63;;;;;;;;;;4985986;28;20048;-84
2023/08/02 11:55:43;;;;;;;1.00;0.63;;;;;;;;;;4972869;28;20034;-83
2023/08/02 11:58:09;;;;;;;1.88;0.70;;;;;;;;;;4995988;28;20100;-82
2023/08/02 12:00:36;;;;;;;0.82;0.73;;;;;;;;;;4997257;28;20040;-82
2023/08/02 12:03:12;;;;;;;1.02;0.70;;;;;;;;;;4995873;28;20041;-79
2023/08/02 12:05:38;;;;;;;1.20;0.55;;;;;;;;;;5001792;28;20045;-79
2023/08/02 12:08:11;;;;;;;0.43;0.43;;;;;;;;;;5012716;28;20034;-79
2023/08/02 12:10:41;;;;;;;1.40;0.60;;;;;;;;;;5014495;28;20068;-82
2023/08/02 12:13:08;;;;;;;1.58;0.50;;;;;;;;;;4995843;28;20041;-80
2023/08/02 12:15:35;;;;;;;0.40;0.40;;;;;;;;;;4995089;28;20124;-81
2023/08/02 12:18:05;;;;;;;0.47;0.40;;;;;;;;;;4989699;28;20052;-79
2023/08/02 12:20:34;;;;;;;0.40;0.40;;;;;;;;;;5005550;28;20168;-79
2023/08/02 12:23:00;;;;;;;0.52;0.40;;;;;;;;;;4996604;28;20095;-80
2023/08/02 12:25:26;;;;;;;1.25;0.40;;;;;;;;;;5009519;28;20038;-79
2023/08/02 12:28:07;;;;;;;0.47;0.40;;;;;;;;;;4984269;28;20056;-78
2023/08/02 12:30:33;;;;;;;1.17;0.45;;;;;;;;;;5007197;28;20052;-79
2023/08/02 12:32:58;;;;;;;0.50;0.40;;;;;;;;;;4998955;28;20052;-79
2023/08/02 12:35:24;;;;;;;0.32;0.32;;;;;;;;;;5011647;28;20041;-79
2023/08/02 12:37:52;;;;;;;0.40;0.40;;;;;;;;;;5011691;28;20048;-80
2023/08/02 12:40:18;;;;;;;1.38;0.38;;;;;;;;;;5011078;28;20485;-80
2023/08/02 12:42:43;;;;;;;0.40;0.40;;;;;;;;;;4991182;28;20049;-80
2023/08/02 12:45:09;;;;;;;0.30;0.30;;;;;;;;;;5008307;28;20037;-80
2023/08/02 12:47:35;;;;;;;0.30;0.30;;;;;;;;;;4977874;28;20042;-81
2023/08/02 12:50:00;;;;;;;0.20;0.20;;;;;;;;;;5011525;28;20409;-81
2023/08/02 12:52:25;;;;;;;0.20;0.20;;;;;;;;;;4994959;28;20026;-81
2023/08/02 12:54:51;;;;;;;0.47;0.30;;;;;;;;;;4995144;28;20186;-81
2023/08/02 12:57:17;;;;;;;0.30;0.30;;;;;;;;;;4995922;28;20555;-81
2023/08/02 12:59:42;;;;;;;1.08;0.20;;;;;;;;;;4999412;28;20052;-81
2023/08/02 13:02:08;;;;;;;0.20;0.20;;;;;;;;;;5007383;28;20056;-81
2023/08/02 13:04:33;;;;;;;0.30;0.30;;;;;;;;;;5004939;28;20458;-80
2023/08/02 13:06:58;;;;;;;0.63;0.30;;;;;;;;;;5003246;28;20033;-80
2023/08/02 13:09:24;;;;;;;0.25;0.25;;;;;;;;;;5010821;28;20045;-80
2023/08/02 13:11:51;;;;;;;0.45;0.30;;;;;;;;;;5006027;28;20037;-81
2023/08/02 13:14:17;;;;;;;0.30;0.30;;;;;;;;;;4997705;28;20033;-79
2023/08/02 13:16:42;;;;;;;0.20;0.20;;;;;;;;;;5007304;28;20041;-78
2023/08/02 13:19:08;;;;;;;0.20;0.20;;;;;;;;;;5008181;28;20041;-78
2023/08/02 13:21:33;;;;;;;0.20;0.20;;;;;;;;;;5006328;28;20055;-78
2023/08/02 13:23:58;;;;;;;0.30;0.30;;;;;;;;;;5005823;28;20041;-78
2023/08/02 13:26:24;;;;;;;0.43;0.20;;;;;;;;;;5006670;28;20075;-78
2023/08/02 13:28:49;;;;;;;0.47;0.20;;;;;;;;;;4972206;28;20049;-80
2023/08/02 13:31:14;;;;;;;0.50;0.13;;;;;;;;;;5008212;28;20518;-80
2023/08/02 13:33:41;;;;;;;0.45;0.20;;;;;;;;;;4992228;28;20034;-80
2023/08/02 13:36:07;;;;;;;0.40;0.20;;;;;;;;;;4993408;28;20464;-80
2023/08/02 13:38:33;;;;;;;1.10;0.30;;;;;;;;;;4996559;28;20042;-80
2023/08/02 13:40:58;;;;;;;0.50;0.20;;;;;;;;;;5006589;28;20112;-80
2023/08/02 13:43:25;;;;;;;0.20;0.20;;;;;;;;;;4997436;28;20033;-80
2023/08/02 13:45:50;;;;;;;0.73;0.30;;;;;;;;;;5004846;28;20073;-80
2023/08/02 13:48:16;;;;;;;0.22;0.20;;;;;;;;;;4999586;28;20033;-79
2023/08/02 13:50:41;;;;;;;1.48;0.30;;;;;;;;;;4988329;28;20148;-80
2023/08/02 13:53:07;;;;;;;0.20;0.20;;;;;;;;;;5007569;28;20096;-80
2023/08/02 13:55:32;;;;;;;0.52;0.30;;;;;;;;;;5012513;28;20036;-80
2023/08/02 13:57:58;;;;;;;1.35;0.40;;;;;;;;;;4969531;28;20561;-80
2023/08/02 14:00:24;;;;;;;0.20;0.20;;;;;;;;;;4994206;28;20029;-80
2023/08/02 14:02:49;;;;;;;0.25;0.20;;;;;;;;;;5008521;28;20668;-80
2023/08/02 14:05:15;;;;;;;1.40;0.20;;;;;;;;;;5010670;28;20042;-80
2023/08/02 14:07:40;;;;;;;0.82;0.30;;;;;;;;;;5009906;28;20168;-80
2023/08/02 14:10:06;;;;;;;0.20;0.20;;;;;;;;;;5008501;28;20045;-81
2023/08/02 14:12:32;;;;;;;0.30;0.30;;;;;;;;;;4990026;28;20105;-80
2023/08/02 14:14:57;;;;;;;0.30;0.20;;;;;;;;;;5005034;28;20077;-80
2023/08/02 14:17:23;;;;;;;0.10;0.10;;;;;;;;;;5005101;28;20053;-80
2023/08/02 14:19:48;;;;;;;0.30;0.30;;;;;;;;;;5004603;28;20045;-80
2023/08/02 14:22:13;;;;;;;0.20;0.20;;;;;;;;;;5006180;28;21178;-80
2023/08/02 14:24:39;;;;;;;0.30;0.20;;;;;;;;;;4983321;28;20041;-80
2023/08/02 14:27:07;;;;;;;0.20;0.20;;;;;;;;;;5009157;28;20099;-80
2023/08/02 14:29:33;;;;;;;0.30;0.20;;;;;;;;;;4992791;28;20095;-80
2023/08/02 14:31:58;;;;;;;0.45;0.10;;;;;;;;;;5003484;28;20038;-80
2023/08/02 14:34:25;;;;;;;0.10;0.10;;;;;;;;;;4995757;28;20765;-80
2023/08/02 14:36:52;;;;;;;0.10;0.10;;;;;;;;;;5005727;28;20525;-80
2023/08/02 14:39:17;;;;;;;0.25;0.20;;;;;;;;;;4998778;28;20702;-80